Time;durP1;ratioP1;P1;durP2;ratioP2;P2;SDS_P1;SDS_P2;PMS_P1;PMS_P2;Temp;Humidity;BMP_temperature;BMP_pressure;BME280_temperature;BME280_humidity;BME280_pressure;Samples;Min_cycle;Max_cycle;Signal;HPM_P1;HPM_P2
2021/10/20 00:00:32;;;;;;;;;;;;;;;22.49;29.47;99151.31;5028102;28;976;-80
2021/10/20 00:02:57;;;;;;;;;;;;;;;22.46;29.56;99145.66;5045688;28;920;-80
2021/10/20 00:05:23;;;;;;;;;;;;;;;22.41;29.76;99148.97;5046025;28;919;-79
2021/10/20 00:07:48;;;;;;;;;;;;;;;22.35;29.77;99157.94;5011122;28;983;-79
2021/10/20 00:10:14;;;;;;;;;;;;;;;22.36;29.60;99153.88;5045233;28;930;-80
2021/10/20 00:12:40;;;;;;;;;;;;;;;22.25;29.95;99158.06;5046377;28;941;-79
2021/10/20 00:15:05;;;;;;;;;;;;;;;22.33;29.83;99154.72;5045234;28;1906;-79
2021/10/20 00:17:32;;;;;;;;;;;;;;;22.24;30.09;99157.25;5046986;28;833;-79
2021/10/20 00:20:00;;;;;;;;;;;;;;;22.21;29.78;99148.78;5009925;28;954;-80
2021/10/20 00:22:26;;;;;;;;;;;;;;;22.18;30.07;99141.94;5046423;28;870;-80
2021/10/20 00:24:51;;;;;;;;;;;;;;;22.08;30.34;99128.66;5043982;28;909;-80
2021/10/20 00:27:17;;;;;;;;;;;;;;;21.93;30.68;99130.81;5045886;28;1049;-79
2021/10/20 00:29:42;;;;;;;;;;;;;;;22.19;30.40;99123.69;5044358;28;932;-80
2021/10/20 00:32:07;;;;;;;;;;;;;;;22.60;29.37;99125.63;5045991;28;1005;-79
2021/10/20 00:34:33;;;;;;;;;;;;;;;22.36;29.99;99125.50;5043620;28;1886;-80
2021/10/20 00:36:58;;;;;;;;;;;;;;;22.70;29.34;99127.53;5046640;28;963;-80
2021/10/20 00:39:24;;;;;;;;;;;;;;;22.57;29.58;99121.59;5044819;28;1096;-80
2021/10/20 00:41:52;;;;;;;;;;;;;;;22.85;29.31;99128.94;5046496;28;978;-79
2021/10/20 00:44:18;;;;;;;;;;;;;;;22.72;29.29;99125.06;5044930;28;1017;-80
2021/10/20 00:46:43;;;;;;;;;;;;;;;22.68;29.07;99123.50;5046887;28;889;-80
2021/10/20 00:49:09;;;;;;;;;;;;;;;22.98;28.77;99125.56;5045642;28;977;-80
2021/10/20 00:51:34;;;;;;;;;;;;;;;22.70;28.94;99119.03;5046541;28;918;-80
2021/10/20 00:54:00;;;;;;;;;;;;;;;22.59;29.24;99124.03;5044099;28;953;-80
2021/10/20 00:56:26;;;;;;;;;;;;;;;22.53;29.47;99117.19;5004562;28;1902;-80
2021/10/20 00:58:51;;;;;;;;;;;;;;;22.46;29.54;99111.63;5002289;28;948;-80
2021/10/20 01:01:17;;;;;;;;;;;;;;;22.26;29.82;99105.78;5005152;28;1014;-79
2021/10/20 01:03:43;;;;;;;;;;;;;;;22.24;29.85;99111.09;5002666;28;921;-80
2021/10/20 01:06:08;;;;;;;;;;;;;;;22.33;29.81;99106.53;5005153;28;943;-80
2021/10/20 01:08:33;;;;;;;;;;;;;;;22.22;29.93;99114.34;5001536;28;935;-80
2021/10/20 01:10:59;;;;;;;;;;;;;;;22.41;29.75;99109.25;5005736;28;930;-80
2021/10/20 01:13:24;;;;;;;;;;;;;;;22.32;29.53;99109.75;5001879;28;886;-80
2021/10/20 01:15:50;;;;;;;;;;;;;;;22.11;30.22;99105.16;5004229;28;1977;-80
2021/10/20 01:18:15;;;;;;;;;;;;;;;21.86;30.92;99119.53;5001159;28;985;-80
2021/10/20 01:20:41;;;;;;;;;;;;;;;22.48;29.69;99109.16;5004678;28;1051;-79
2021/10/20 01:23:06;;;;;;;;;;;;;;;22.88;29.20;99111.09;4981909;28;1046;-80
2021/10/20 01:25:32;;;;;;;;;;;;;;;22.70;29.12;99110.50;4983618;28;930;-80
2021/10/20 01:27:57;;;;;;;;;;;;;;;22.60;29.29;99105.78;5011652;28;854;-79
2021/10/20 01:30:22;;;;;;;;;;;;;;;22.79;29.07;99107.94;5023027;28;929;-80
2021/10/20 01:32:48;;;;;;;;;;;;;;;22.84;29.13;99104.63;5022567;28;929;-80
2021/10/20 01:35:13;;;;;;;;;;;;;;;22.97;28.80;99110.56;5023177;28;1906;-80
2021/10/20 01:37:39;;;;;;;;;;;;;;;23.01;28.32;99107.69;5023695;28;905;-80
2021/10/20 01:40:05;;;;;;;;;;;;;;;22.59;28.88;99104.97;5021707;28;1024;-80
2021/10/20 01:42:30;;;;;;;;;;;;;;;22.33;29.51;99106.53;5024300;28;1028;-80
2021/10/20 01:44:56;;;;;;;;;;;;;;;22.41;29.56;99100.75;5021902;28;976;-80
2021/10/20 01:47:21;;;;;;;;;;;;;;;22.39;29.45;99103.22;5023923;28;1160;-80
2021/10/20 01:49:47;;;;;;;;;;;;;;;22.41;29.51;99103.59;5021775;28;921;-79
2021/10/20 01:52:12;;;;;;;;;;;;;;;22.48;29.63;99097.81;5022904;28;988;-79
2021/10/20 01:54:37;;;;;;;;;;;;;;;22.27;30.00;99091.19;4988863;28;1911;-79
2021/10/20 01:57:03;;;;;;;;;;;;;;;22.19;29.71;99092.50;5023240;28;1058;-80
2021/10/20 01:59:28;;;;;;;;;;;;;;;22.17;30.21;99094.94;4984501;28;948;-80
2021/10/20 02:01:54;;;;;;;;;;;;;;;22.25;29.98;99096.50;5003983;28;1053;-79
2021/10/20 02:04:19;;;;;;;;;;;;;;;22.29;29.87;99090.78;5001910;28;934;-80
2021/10/20 02:06:45;;;;;;;;;;;;;;;22.49;29.67;99099.44;5003620;28;1045;-80
2021/10/20 02:09:11;;;;;;;;;;;;;;;22.20;30.25;99087.66;5002022;28;955;-80
2021/10/20 02:11:36;;;;;;;;;;;;;;;22.31;30.13;99094.78;4983933;28;953;-79
2021/10/20 02:14:02;;;;;;;;;;;;;;;22.76;29.19;99091.78;4982811;28;918;-79
2021/10/20 02:16:28;;;;;;;;;;;;;;;22.69;29.39;99096.72;4983738;28;2212;-80
2021/10/20 02:18:54;;;;;;;;;;;;;;;22.24;30.15;99100.56;4982777;28;912;-80
2021/10/20 02:21:19;;;;;;;;;;;;;;;22.93;29.26;99101.28;4984598;28;1004;-80
2021/10/20 02:23:45;;;;;;;;;;;;;;;22.71;29.29;99097.94;4981821;28;1094;-80
2021/10/20 02:26:10;;;;;;;;;;;;;;;22.78;28.71;99094.19;4984693;28;938;-80
2021/10/20 02:28:35;;;;;;;;;;;;;;;22.50;29.14;99103.88;4981867;28;1118;-80
2021/10/20 02:31:01;;;;;;;;;;;;;;;22.49;29.27;99105.94;4985775;28;1021;-80
2021/10/20 02:33:26;;;;;;;;;;;;;;;22.34;29.55;99102.47;4981527;28;992;-80
2021/10/20 02:35:52;;;;;;;;;;;;;;;22.38;29.49;99105.22;4989299;28;1985;-80
2021/10/20 02:38:17;;;;;;;;;;;;;;;22.21;29.79;99095.72;4987680;28;962;-79
2021/10/20 02:40:43;;;;;;;;;;;;;;;22.34;29.58;99098.81;5023236;28;972;-79
2021/10/20 02:43:08;;;;;;;;;;;;;;;22.14;29.96;99090.16;5036974;28;950;-79
2021/10/20 02:45:34;;;;;;;;;;;;;;;22.28;29.74;99089.97;5044992;28;848;-79
2021/10/20 02:47:59;;;;;;;;;;;;;;;22.18;29.80;99090.13;5042805;28;858;-80
2021/10/20 02:50:28;;;;;;;;;;;;;;;22.26;29.90;99078.25;5008534;28;909;-79
2021/10/20 02:52:53;;;;;;;;;;;;;;;22.01;30.33;99087.00;5042760;28;863;-80
2021/10/20 02:55:19;;;;;;;;;;;;;;;22.24;30.33;99088.41;5043307;28;1989;-80
2021/10/20 02:57:44;;;;;;;;;;;;;;;22.52;29.81;99090.06;5009486;28;986;-80
2021/10/20 03:00:10;;;;;;;;;;;;;;;22.30;29.73;99098.84;5043005;28;1051;-79
2021/10/20 03:02:35;;;;;;;;;;;;;;;22.32;29.94;99102.06;5009788;28;872;-80
2021/10/20 03:05:01;;;;;;;;;;;;;;;22.52;29.53;99107.09;5045698;28;916;-80
2021/10/20 03:07:26;;;;;;;;;;;;;;;22.96;28.91;99094.78;5048565;28;781;-79
2021/10/20 03:09:52;;;;;;;;;;;;;;;22.87;29.00;99094.47;5045751;28;1174;-80
2021/10/20 03:12:17;;;;;;;;;;;;;;;23.17;28.22;99099.31;5048159;28;1194;-80
2021/10/20 03:14:42;;;;;;;;;;;;;;;22.99;28.57;99090.25;5046895;28;1989;-80
2021/10/20 03:17:10;;;;;;;;;;;;;;;22.68;28.92;99095.13;5047251;28;1509;-79
2021/10/20 03:19:35;;;;;;;;;;;;;;;22.38;29.40;99095.91;5045392;28;1265;-80
2021/10/20 03:22:01;;;;;;;;;;;;;;;22.31;29.40;99097.63;5047282;28;1225;-80
2021/10/20 03:24:26;;;;;;;;;;;;;;;22.34;29.61;99093.16;5045140;28;1308;-79
2021/10/20 03:26:52;;;;;;;;;;;;;;;22.31;29.67;99091.94;5047480;28;1282;-80
2021/10/20 03:29:17;;;;;;;;;;;;;;;22.18;30.12;99102.25;5045861;28;1280;-80
2021/10/20 03:31:42;;;;;;;;;;;;;;;22.28;29.76;99101.31;5012560;28;1206;-79
2021/10/20 03:34:08;;;;;;;;;;;;;;;22.09;29.83;99099.88;5045554;28;1289;-80
2021/10/20 03:36:33;;;;;;;;;;;;;;;22.24;29.81;99094.09;5047585;28;1981;-79
2021/10/20 03:38:59;;;;;;;;;;;;;;;22.31;29.76;99088.31;5045530;28;929;-80
2021/10/20 03:41:24;;;;;;;;;;;;;;;22.18;29.91;99098.63;5048067;28;972;-79
2021/10/20 03:43:49;;;;;;;;;;;;;;;22.40;29.81;99097.13;5045552;28;945;-79
2021/10/20 03:46:15;;;;;;;;;;;;;;;22.11;30.23;99102.31;5047325;28;858;-80
2021/10/20 03:48:40;;;;;;;;;;;;;;;22.78;28.91;99099.84;5044951;28;861;-80
2021/10/20 03:51:06;;;;;;;;;;;;;;;22.29;30.10;99099.28;5047649;28;927;-80
2021/10/20 03:53:32;;;;;;;;;;;;;;;22.66;29.20;99106.91;5043987;28;894;-80
2021/10/20 03:55:57;;;;;;;;;;;;;;;22.24;29.98;99103.38;5048208;28;1979;-80
2021/10/20 03:58:23;;;;;;;;;;;;;;;22.74;29.15;99104.78;5009616;28;944;-80
2021/10/20 04:00:48;;;;;;;;;;;;;;;22.77;29.00;99107.56;5047284;28;858;-80
2021/10/20 04:03:14;;;;;;;;;;;;;;;22.98;28.54;99102.84;5045010;28;933;-79
2021/10/20 04:05:39;;;;;;;;;;;;;;;22.99;28.68;99098.78;5046999;28;744;-79
2021/10/20 04:08:04;;;;;;;;;;;;;;;22.76;28.72;99097.44;5045101;28;921;-80
2021/10/20 04:10:30;;;;;;;;;;;;;;;22.51;29.06;99097.78;5047365;28;941;-79
2021/10/20 04:12:55;;;;;;;;;;;;;;;22.43;29.14;99095.44;5045343;28;943;-80
2021/10/20 04:15:22;;;;;;;;;;;;;;;22.44;29.56;99091.41;5045384;28;1883;-79
2021/10/20 04:17:47;;;;;;;;;;;;;;;22.43;29.31;99086.94;5046104;28;1083;-79
2021/10/20 04:20:14;;;;;;;;;;;;;;;22.40;29.42;99079.31;5003824;28;951;-80
2021/10/20 04:22:39;;;;;;;;;;;;;;;22.35;29.53;99089.09;5004455;28;1216;-80
2021/10/20 04:25:05;;;;;;;;;;;;;;;22.34;29.51;99087.47;5004681;28;1004;-80
2021/10/20 04:27:30;;;;;;;;;;;;;;;22.31;29.55;99094.00;4989246;28;940;-79
2021/10/20 04:29:58;;;;;;;;;;;;;;;22.20;29.72;99088.44;5003605;28;945;-80
2021/10/20 04:32:24;;;;;;;;;;;;;;;22.02;30.18;99104.81;4966350;28;990;-79
2021/10/20 04:34:49;;;;;;;;;;;;;;;22.13;30.25;99102.72;4964064;29;1981;-79
2021/10/20 04:37:15;;;;;;;;;;;;;;;22.50;29.79;99101.06;4965674;28;1047;-80
2021/10/20 04:39:40;;;;;;;;;;;;;;;22.19;30.24;99098.19;4963928;29;1020;-79
2021/10/20 04:42:06;;;;;;;;;;;;;;;22.42;29.74;99088.19;4966109;29;984;-80
2021/10/20 04:44:31;;;;;;;;;;;;;;;22.96;29.00;99105.31;4964037;29;953;-80
2021/10/20 04:46:56;;;;;;;;;;;;;;;23.08;28.69;99104.72;4950321;29;1141;-80
2021/10/20 04:49:22;;;;;;;;;;;;;;;22.61;29.15;99107.38;4964453;29;916;-79
2021/10/20 04:51:47;;;;;;;;;;;;;;;22.21;30.06;99107.06;4942167;29;909;-80
2021/10/20 04:54:13;;;;;;;;;;;;;;;22.55;29.35;99106.25;4944885;29;936;-79
2021/10/20 04:56:38;;;;;;;;;;;;;;;22.87;28.53;99108.66;4946778;29;1907;-80
2021/10/20 04:59:04;;;;;;;;;;;;;;;22.54;29.14;99113.16;4945123;29;1197;-79
2021/10/20 05:01:29;;;;;;;;;;;;;;;22.50;29.31;99115.22;4946869;29;914;-79
2021/10/20 05:03:54;;;;;;;;;;;;;;;22.31;29.79;99105.34;4973607;28;930;-80
2021/10/20 05:06:20;;;;;;;;;;;;;;;22.31;29.66;99108.97;4966042;29;1141;-80
2021/10/20 05:08:45;;;;;;;;;;;;;;;22.32;29.74;99102.06;4947283;29;1016;-79
2021/10/20 05:11:10;;;;;;;;;;;;;;;22.29;29.86;99097.25;4965548;29;945;-80
2021/10/20 05:13:36;;;;;;;;;;;;;;;22.39;29.88;99111.72;4962922;29;1116;-80
2021/10/20 05:16:01;;;;;;;;;;;;;;;22.40;29.39;99104.81;4974297;28;1903;-80
2021/10/20 05:18:27;;;;;;;;;;;;;;;22.26;29.85;99109.44;4981506;28;924;-79
2021/10/20 05:20:52;;;;;;;;;;;;;;;22.30;29.71;99110.19;4985836;28;998;-79
2021/10/20 05:23:18;;;;;;;;;;;;;;;21.96;30.74;99112.97;4995855;28;990;-80
2021/10/20 05:25:43;;;;;;;;;;;;;;;22.63;29.36;99113.44;5004136;28;966;-80
2021/10/20 05:28:08;;;;;;;;;;;;;;;22.49;29.58;99122.13;5001260;28;955;-80
2021/10/20 05:30:34;;;;;;;;;;;;;;;22.75;29.22;99118.56;5003949;28;1011;-79
2021/10/20 05:32:59;;;;;;;;;;;;;;;22.31;29.86;99117.47;5001958;28;985;-80
2021/10/20 05:35:25;;;;;;;;;;;;;;;22.37;30.13;99126.31;5002946;28;1906;-80
2021/10/20 05:37:51;;;;;;;;;;;;;;;22.30;30.07;99121.53;5017129;28;990;-80
2021/10/20 05:40:20;;;;;;;;;;;;;;;22.87;29.07;99125.69;4982740;28;956;-79
2021/10/20 05:42:45;;;;;;;;;;;;;;;22.68;29.42;99124.31;4963429;29;971;-80
2021/10/20 05:45:11;;;;;;;;;;;;;;;22.64;29.25;99129.25;4963778;29;999;-79
2021/10/20 05:47:36;;;;;;;;;;;;;;;22.68;29.18;99129.97;4926600;29;990;-80
2021/10/20 05:50:02;;;;;;;;;;;;;;;22.53;29.37;99128.56;4924520;29;911;-80
2021/10/20 05:52:28;;;;;;;;;;;;;;;22.40;29.48;99130.34;4907833;29;953;-80
2021/10/20 05:54:53;;;;;;;;;;;;;;;22.28;29.74;99141.03;4906684;29;1972;-80
2021/10/20 05:57:22;;;;;;;;;;;;;;;22.24;30.17;99137.41;4907805;29;982;-80
2021/10/20 05:59:47;;;;;;;;;;;;;;;22.32;30.00;99129.63;4859970;29;996;-80
2021/10/20 06:02:14;;;;;;;;;;;;;;;22.30;29.95;99132.88;4907444;29;947;-79
2021/10/20 06:04:42;;;;;;;;;;;;;;;22.22;29.98;99147.56;4905804;29;1102;-79
2021/10/20 06:07:08;;;;;;;;;;;;;;;22.21;30.27;99135.41;4907596;29;981;-79
2021/10/20 06:09:36;;;;;;;;;;;;;;;22.12;30.23;99137.13;4905118;29;1003;-80
2021/10/20 06:12:04;;;;;;;;;;;;;;;22.17;30.40;99145.97;4906412;29;1025;-79
2021/10/20 06:14:35;;;;;;;;;;;;;;;21.67;31.27;99140.78;4935141;29;933;-82
2021/10/20 06:17:01;;;;;;;;;;;;;;;22.37;30.03;99143.31;4910019;29;1256;-80
2021/10/20 06:19:26;;;;;;;;;;;;;;;22.34;30.24;99139.31;4940279;29;960;-79
2021/10/20 06:21:53;;;;;;;;;;;;;;;22.09;30.57;99144.44;4945608;29;1079;-80
2021/10/20 06:24:18;;;;;;;;;;;;;;;22.88;29.54;99139.47;4942998;29;1020;-79
2021/10/20 06:26:43;;;;;;;;;;;;;;;22.84;29.69;99150.03;4929232;29;1043;-80
2021/10/20 06:29:09;;;;;;;;;;;;;;;23.08;29.38;99144.47;4954329;28;948;-80
2021/10/20 06:31:34;;;;;;;;;;;;;;;23.05;29.23;99154.66;5003771;28;1282;-80
2021/10/20 06:34:00;;;;;;;;;;;;;;;22.49;30.14;99153.34;5001155;28;983;-79
2021/10/20 06:36:32;;;;;;;;;;;;;;;22.87;29.28;99160.53;5002663;28;1910;-79
2021/10/20 06:38:57;;;;;;;;;;;;;;;22.54;29.63;99152.88;5003666;28;902;-80
2021/10/20 06:41:23;;;;;;;;;;;;;;;22.34;30.11;99156.34;4986695;28;949;-80
2021/10/20 06:43:49;;;;;;;;;;;;;;;22.32;30.20;99164.44;4984402;28;917;-78
2021/10/20 06:46:14;;;;;;;;;;;;;;;22.33;30.31;99176.63;4987833;28;912;-79
2021/10/20 06:48:40;;;;;;;;;;;;;;;22.33;30.27;99171.75;5015309;28;932;-79
2021/10/20 06:51:06;;;;;;;;;;;;;;;22.39;30.17;99179.78;5026983;28;921;-80
2021/10/20 06:53:31;;;;;;;;;;;;;;;22.42;29.90;99173.25;5023754;28;1041;-79
2021/10/20 06:55:56;;;;;;;;;;;;;;;22.23;30.59;99183.19;5026873;28;1902;-80
2021/10/20 06:58:22;;;;;;;;;;;;;;;22.21;30.45;99186.44;5023036;28;999;-79
2021/10/20 07:00:48;;;;;;;;;;;;;;;22.24;30.59;99194.13;5026109;28;984;-79
2021/10/20 07:03:14;;;;;;;;;;;;;;;22.15;30.42;99188.13;5023470;28;955;-79
2021/10/20 07:05:40;;;;;;;;;;;;;;;22.11;31.09;99181.69;5025214;28;1011;-79
2021/10/20 07:08:05;;;;;;;;;;;;;;;22.15;31.22;99188.13;5023898;28;929;-79
2021/10/20 07:10:31;;;;;;;;;;;;;;;22.53;30.46;99191.75;5025008;28;977;-79
2021/10/20 07:12:56;;;;;;;;;;;;;;;22.92;29.83;99189.72;5039395;28;1109;-79
2021/10/20 07:15:21;;;;;;;;;;;;;;;22.72;29.87;99187.47;5011854;28;1958;-79
2021/10/20 07:17:47;;;;;;;;;;;;;;;22.48;30.49;99197.88;5046093;28;828;-79
2021/10/20 07:20:13;;;;;;;;;;;;;;;22.21;30.77;99194.94;5045755;28;954;-80
2021/10/20 07:22:39;;;;;;;;;;;;;;;22.68;30.29;99194.44;5047010;28;957;-79
2021/10/20 07:25:06;;;;;;;;;;;;;;;23.19;29.16;99192.56;5046036;28;837;-80
2021/10/20 07:27:34;;;;;;;;;;;;;;;22.87;29.72;99191.75;5047169;28;828;-79
2021/10/20 07:29:59;;;;;;;;;;;;;;;22.71;29.46;99185.09;5045249;28;1028;-79
2021/10/20 07:32:25;;;;;;;;;;;;;;;22.57;29.72;99186.03;5046849;28;874;-80
2021/10/20 07:34:50;;;;;;;;;;;;;;;22.44;30.30;99193.50;5045432;28;1906;-80
2021/10/20 07:37:16;;;;;;;;;;;;;;;22.34;30.24;99196.03;5047191;28;937;-79
2021/10/20 07:39:41;;;;;;;;;;;;;;;22.27;30.45;99190.41;5045389;28;839;-79
2021/10/20 07:42:06;;;;;;;;;;;;;;;22.42;29.95;99191.06;5047415;28;914;-79
2021/10/20 07:44:32;;;;;;;;;;;;;;;22.38;30.00;99183.81;5045103;28;933;-79
2021/10/20 07:46:57;;;;;;;;;;;;;;;22.41;29.98;99185.84;5046696;28;993;-79
2021/10/20 07:49:23;;;;;;;;;;;;;;;22.25;30.29;99186.41;5044445;28;914;-79
2021/10/20 07:51:51;;;;;;;;;;;;;;;22.34;30.28;99178.22;5046761;28;1030;-79
2021/10/20 07:54:16;;;;;;;;;;;;;;;22.14;30.69;99175.19;5044554;28;980;-79
2021/10/20 07:56:43;;;;;;;;;;;;;;;22.14;30.35;99180.84;5011393;28;1902;-79
2021/10/20 07:59:09;;;;;;;;;;;;;;;21.81;31.51;99176.66;5044668;28;875;-79
2021/10/20 08:01:34;;;;;;;;;;;;;;;22.29;31.06;99185.16;5045644;28;916;-79
2021/10/20 08:04:00;;;;;;;;;;;;;;;22.38;30.70;99183.81;5044167;28;1011;-79
2021/10/20 08:06:26;;;;;;;;;;;;;;;22.86;29.81;99181.63;5045960;28;949;-79
2021/10/20 08:08:51;;;;;;;;;;;;;;;22.76;30.02;99185.41;5044472;28;932;-80
2021/10/20 08:11:16;;;;;;;;;;;;;;;22.63;30.47;99182.31;5045833;28;930;-80
2021/10/20 08:13:42;;;;;;;;;;;;;;;22.60;30.52;99180.34;5043689;28;890;-79
2021/10/20 08:16:07;;;;;;;;;;;;;;;22.59;30.21;99189.28;5046518;28;1922;-80
2021/10/20 08:18:33;;;;;;;;;;;;;;;22.71;29.88;99180.22;5043508;28;909;-79
2021/10/20 08:20:58;;;;;;;;;;;;;;;22.66;29.63;99183.50;5046443;28;882;-79
2021/10/20 08:23:25;;;;;;;;;;;;;;;22.56;29.80;99179.56;5042553;28;895;-79
2021/10/20 08:25:51;;;;;;;;;;;;;;;22.31;30.55;99179.84;5046289;28;900;-79
2021/10/20 08:28:16;;;;;;;;;;;;;;;22.08;30.59;99188.97;5043050;28;957;-79
2021/10/20 08:30:42;;;;;;;;;;;;;;;22.40;30.46;99189.91;5046021;28;971;-79
2021/10/20 08:33:07;;;;;;;;;;;;;;;22.26;30.41;99188.00;5043865;28;1033;-80
2021/10/20 08:35:32;;;;;;;;;;;;;;;22.40;30.70;99193.53;5045021;28;1902;-79
2021/10/20 08:38:03;;;;;;;;;;;;;;;22.32;30.45;99204.13;5044059;28;942;-79
2021/10/20 08:40:29;;;;;;;;;;;;;;;22.24;30.57;99202.63;5044428;28;936;-79
2021/10/20 08:42:55;;;;;;;;;;;;;;;22.15;30.95;99196.63;5043710;28;1118;-79
2021/10/20 08:45:20;;;;;;;;;;;;;;;22.31;30.55;99196.88;5043772;28;876;-79
2021/10/20 08:47:47;;;;;;;;;;;;;;;22.33;30.74;99194.44;5044929;28;884;-79
2021/10/20 08:50:14;;;;;;;;;;;;;;;21.81;32.31;99197.34;5026408;28;942;-79
2021/10/20 08:52:39;;;;;;;;;;;;;;;22.05;31.87;99189.81;5044417;28;919;-79
2021/10/20 08:55:05;;;;;;;;;;;;;;;22.36;31.58;99187.09;5001054;28;1898;-79
2021/10/20 08:57:30;;;;;;;;;;;;;;;22.79;30.68;99181.72;5000220;28;1064;-79
2021/10/20 08:59:56;;;;;;;;;;;;;;;22.57;30.71;99191.72;5001287;28;935;-79
2021/10/20 09:02:22;;;;;;;;;;;;;;;22.97;30.11;99192.88;5002776;28;990;-79
2021/10/20 09:04:54;;;;;;;;;;;;;;;23.18;29.90;99188.94;5002128;28;963;-79
2021/10/20 09:07:19;;;;;;;;;;;;;;;22.50;31.15;99183.31;5004151;28;942;-79
2021/10/20 09:09:45;;;;;;;;;;;;;;;22.57;30.36;99186.03;5001368;28;983;-78
2021/10/20 09:12:10;;;;;;;;;;;;;;;22.59;30.25;99189.28;5003041;28;1047;-79
2021/10/20 09:14:35;;;;;;;;;;;;;;;22.51;30.39;99182.88;5001182;28;941;-79
2021/10/20 09:17:01;;;;;;;;;;;;;;;22.54;30.57;99192.59;5003269;28;1918;-79
2021/10/20 09:19:34;;;;;;;;;;;;;;;22.45;30.70;99178.09;5001555;28;1011;-79
2021/10/20 09:22:08;;;;;;;;;;;;;;;22.34;30.62;99184.69;4988063;28;967;-80
2021/10/20 09:24:35;;;;;;;;;;;;;;;22.35;30.52;99180.63;5001510;28;1005;-79
2021/10/20 09:27:00;;;;;;;;;;;;;;;22.29;30.83;99179.47;4998667;28;902;-79
2021/10/20 09:29:26;;;;;;;;;;;;;;;22.26;30.77;99179.50;5000339;28;1413;-78
2021/10/20 09:31:52;;;;;;;;;;;;;;;22.15;30.79;99173.94;5002441;28;903;-79
2021/10/20 09:34:17;;;;;;;;;;;;;;;22.31;30.58;99173.38;4968108;28;1036;-79
2021/10/20 09:36:43;;;;;;;;;;;;;;;22.10;30.83;99175.22;5002826;28;1906;-79
2021/10/20 09:39:09;;;;;;;;;;;;;;;22.24;30.86;99179.94;4980811;28;1000;-79
2021/10/20 09:41:34;;;;;;;;;;;;;;;22.26;31.18;99165.34;4983448;28;1128;-79
2021/10/20 09:44:00;;;;;;;;;;;;;;;21.88;32.41;99167.31;4980951;28;893;-80
2021/10/20 09:46:32;;;;;;;;;;;;;;;21.86;32.37;99164.88;4982394;28;1013;-79
2021/10/20 09:49:02;;;;;;;;;;;;;;;22.23;31.99;99161.31;4980919;28;987;-79
2021/10/20 09:51:27;;;;;;;;;;;;;;;22.88;31.07;99162.16;4982630;28;1010;-79
2021/10/20 09:53:53;;;;;;;;;;;;;;;23.02;30.39;99155.50;4980004;28;980;-79
2021/10/20 09:56:30;;;;;;;;;;;;;;;23.12;30.18;99165.09;4982321;28;1985;-79
2021/10/20 09:58:56;;;;;;;;;;;;;;;23.00;30.36;99154.31;4981961;28;947;-79
2021/10/20 10:01:24;;;;;;;;;;;;;;;22.92;30.56;99152.81;5002468;28;1014;-79
2021/10/20 10:03:49;;;;;;;;;;;;;;;22.69;30.45;99148.63;4967873;28;1130;-79
2021/10/20 10:06:15;;;;;;;;;;;;;;;22.59;30.54;99144.69;5002269;28;930;-79
2021/10/20 10:08:40;;;;;;;;;;;;;;;22.43;30.61;99141.63;4999065;28;935;-79
2021/10/20 10:11:06;;;;;;;;;;;;;;;22.30;31.16;99152.72;5019717;28;1007;-79
2021/10/20 10:13:32;;;;;;;;;;;;;;;22.44;30.69;99131.13;5020469;28;1614;-79
2021/10/20 10:16:01;;;;;;;;;;;;;;;22.28;30.96;99135.34;5006362;28;1994;-79
2021/10/20 10:18:26;;;;;;;;;;;;;;;22.11;31.52;99136.31;5003330;28;996;-80
2021/10/20 10:20:52;;;;;;;;;;;;;;;22.15;31.48;99131.44;4990549;28;1006;-80
2021/10/20 10:23:24;;;;;;;;;;;;;;;22.30;31.14;99132.88;5003318;28;951;-79
2021/10/20 10:25:59;;;;;;;;;;;;;;;22.22;31.14;99130.53;4966959;29;930;-79
2021/10/20 10:28:26;;;;;;;;;;;;;;;22.15;31.42;99125.75;4963660;29;905;-79
2021/10/20 10:31:05;;;;;;;;;;;;;;;22.24;31.00;99128.91;4967706;29;971;-79
2021/10/20 10:33:32;;;;;;;;;;;;;;;22.18;30.92;99124.13;4964003;29;1011;-79
2021/10/20 10:36:14;;;;;;;;;;;;;;;22.30;30.95;99115.88;4933875;29;1910;-79
2021/10/20 10:38:42;;;;;;;;;;;;;;;22.03;32.47;99114.94;4935396;29;1264;-79
2021/10/20 10:41:28;;;;;;;;;;;;;;;22.54;31.87;99113.16;4937308;29;1216;-79
2021/10/20 10:46:34;;;;;;;;;;;;;;;22.88;30.99;99113.91;4901456;29;1005;-79
2021/10/20 10:49:00;;;;;;;;;;;;;;;23.26;30.56;99119.47;4900919;29;1383;-79
2021/10/20 10:51:26;;;;;;;;;;;;;;;23.26;30.20;99113.78;4888941;29;996;-79
2021/10/20 10:53:52;;;;;;;;;;;;;;;22.63;31.42;99133.28;4869783;29;1032;-78
2021/10/20 10:56:17;;;;;;;;;;;;;;;22.98;30.46;99103.66;4877550;29;1978;-79
2021/10/20 10:58:54;;;;;;;;;;;;;;;22.55;30.96;99103.41;4888176;29;969;-79
2021/10/20 11:01:35;;;;;;;;;;;;;;;22.44;31.00;99102.75;4890498;29;1076;-79
2021/10/20 11:04:19;;;;;;;;;;;;;;;22.45;31.07;99095.84;4888328;29;904;-79
2021/10/20 11:06:44;;;;;;;;;;;;;;;22.44;30.95;99097.88;4908389;29;1525;-79
2021/10/20 11:09:10;;;;;;;;;;;;;;;22.36;30.96;99085.81;4906675;29;1055;-79
2021/10/20 11:11:36;;;;;;;;;;;;;;;22.26;31.21;99086.75;4908822;29;1335;-79
2021/10/20 11:14:01;;;;;;;;;;;;;;;22.30;31.33;99086.72;4920727;29;1467;-79
2021/10/20 11:16:27;;;;;;;;;;;;;;;22.20;31.51;99082.78;4927553;29;1972;-79
2021/10/20 11:18:53;;;;;;;;;;;;;;;22.24;31.11;99072.22;4925494;29;1014;-79
2021/10/20 11:21:23;;;;;;;;;;;;;;;22.21;31.14;99066.56;4927413;29;1007;-79
2021/10/20 11:23:48;;;;;;;;;;;;;;;22.12;31.24;99067.06;4940021;29;1027;-79
2021/10/20 11:26:14;;;;;;;;;;;;;;;22.23;30.92;99052.78;4963928;29;997;-78
2021/10/20 11:28:41;;;;;;;;;;;;;;;21.85;32.48;99056.41;4944134;29;991;-79
2021/10/20 11:31:09;;;;;;;;;;;;;;;22.48;31.97;99050.41;4938505;29;1034;-79
2021/10/20 11:33:34;;;;;;;;;;;;;;;22.21;32.25;99058.88;4955659;29;1113;-79
2021/10/20 11:36:00;;;;;;;;;;;;;;;22.43;31.99;99055.75;4927622;29;1875;-79
2021/10/20 11:38:28;;;;;;;;;;;;;;;22.87;31.05;99046.22;4940032;29;1139;-79
2021/10/20 11:40:54;;;;;;;;;;;;;;;22.58;31.49;99051.50;4915605;29;955;-79
2021/10/20 11:43:21;;;;;;;;;;;;;;;22.64;31.39;99044.13;4908152;29;900;-79
2021/10/20 11:45:47;;;;;;;;;;;;;;;23.00;30.34;99043.59;4927433;29;963;-79
2021/10/20 11:48:18;;;;;;;;;;;;;;;22.73;30.51;99035.06;4930399;29;913;-79
2021/10/20 11:50:43;;;;;;;;;;;;;;;22.48;31.01;99039.06;4964884;29;906;-79
2021/10/20 11:53:09;;;;;;;;;;;;;;;22.15;31.29;99037.88;4960955;29;918;-79
2021/10/20 11:55:44;;;;;;;;;;;;;;;22.34;30.98;99037.25;4981047;28;1883;-78
2021/10/20 11:58:19;;;;;;;;;;;;;;;22.27;31.22;99037.31;5003158;28;1252;-79
2021/10/20 12:00:48;;;;;;;;;;;;;;;22.15;31.40;99035.06;5023121;28;950;-79
2021/10/20 12:03:14;;;;;;;;;;;;;;;22.18;30.99;99031.38;5020848;28;1041;-79
2021/10/20 12:05:39;;;;;;;;;;;;;;;22.38;30.64;99025.03;5023763;28;1109;-79
2021/10/20 12:08:04;;;;;;;;;;;;;;;22.23;30.85;99024.44;5021295;28;935;-79
2021/10/20 12:10:30;;;;;;;;;;;;;;;22.04;31.13;99031.53;5023123;28;955;-78
2021/10/20 12:12:55;;;;;;;;;;;;;;;22.31;31.40;99026.75;5022922;28;837;-79
2021/10/20 12:15:21;;;;;;;;;;;;;;;22.15;32.06;99020.88;4985918;28;2018;-79
2021/10/20 12:17:47;;;;;;;;;;;;;;;22.06;32.31;99012.06;5002568;28;935;-81
2021/10/20 12:20:13;;;;;;;;;;;;;;;22.50;31.41;99015.97;5002269;28;990;-80
2021/10/20 12:22:40;;;;;;;;;;;;;;;22.70;31.02;99007.56;5002544;28;990;-80
2021/10/20 12:25:06;;;;;;;;;;;;;;;22.60;31.16;99009.34;5001873;28;978;-80
2021/10/20 12:27:31;;;;;;;;;;;;;;;22.47;31.31;99016.81;4916813;29;956;-80
2021/10/20 12:29:59;;;;;;;;;;;;;;;23.03;30.27;99005.84;4962373;28;1084;-81
2021/10/20 12:32:28;;;;;;;;;;;;;;;22.74;30.91;99003.47;4932483;29;1003;-80
2021/10/20 12:35:05;;;;;;;;;;;;;;;22.91;30.47;99012.16;4962652;28;1887;-81
2021/10/20 12:37:32;;;;;;;;;;;;;;;22.58;30.65;99008.94;4964797;28;982;-81
2021/10/20 12:39:58;;;;;;;;;;;;;;;22.39;30.92;99003.97;4929054;29;1035;-79
2021/10/20 12:42:24;;;;;;;;;;;;;;;22.47;30.52;98997.75;4907074;29;1063;-80
2021/10/20 12:44:55;;;;;;;;;;;;;;;22.39;30.97;99003.97;4905871;29;997;-80
2021/10/20 12:47:21;;;;;;;;;;;;;;;22.49;30.46;99003.81;4941976;29;910;-80
2021/10/20 12:49:50;;;;;;;;;;;;;;;22.34;30.58;99008.09;4942920;29;916;-80
2021/10/20 12:52:15;;;;;;;;;;;;;;;22.31;30.65;99011.75;4944803;29;972;-80
2021/10/20 12:54:46;;;;;;;;;;;;;;;22.26;30.96;99010.19;4943074;29;1015;-80
2021/10/20 12:57:13;;;;;;;;;;;;;;;22.25;30.65;99000.09;4944913;29;2054;-80
2021/10/20 12:59:38;;;;;;;;;;;;;;;22.10;30.89;98998.63;4998373;28;1334;-80